sensor_id;sensor_type;location;lat;lon;timestamp;temperature;humidity
30037;DHT22;36325;51.512;-0.382;2023-08-07T00:01:21;13.00;99.90
30037;DHT22;36325;51.512;-0.382;2023-08-07T00:03:54;13.00;99.90
30037;DHT22;36325;51.512;-0.382;2023-08-07T00:06:24;13.00;99.90
30037;DHT22;36325;51.512;-0.382;2023-08-07T00:08:53;13.00;99.90
30037;DHT22;36325;51.512;-0.382;2023-08-07T00:11:21;12.90;99.90
30037;DHT22;36325;51.512;-0.382;2023-08-07T00:25:29;12.80;99.90
30037;DHT22;36325;51.512;-0.382;2023-08-07T00:28:12;12.70;99.90
30037;DHT22;36325;51.512;-0.382;2023-08-07T00:30:40;12.70;99.90
30037;DHT22;36325;51.512;-0.382;2023-08-07T00:33:08;12.60;99.90
30037;DHT22;36325;51.512;-0.382;2023-08-07T00:35:38;12.60;99.90
30037;DHT22;36325;51.512;-0.382;2023-08-07T00:38:08;12.60;99.90
30037;DHT22;36325;51.512;-0.382;2023-08-07T00:40:42;12.60;99.90
30037;DHT22;36325;51.512;-0.382;2023-08-07T00:43:10;12.60;99.90
30037;DHT22;36325;51.512;-0.382;2023-08-07T00:45:54;12.60;99.90
30037;DHT22;36325;51.512;-0.382;2023-08-07T00:48:25;12.60;99.90
30037;DHT22;36325;51.512;-0.382;2023-08-07T00:50:54;12.50;99.90
30037;DHT22;36325;51.512;-0.382;2023-08-07T00:53:37;12.50;99.90
30037;DHT22;36325;51.512;-0.382;2023-08-07T00:56:05;12.50;99.90
30037;DHT22;36325;51.512;-0.382;2023-08-07T00:58:34;12.50;99.90
30037;DHT22;36325;51.512;-0.382;2023-08-07T01:01:08;12.40;99.90
30037;DHT22;36325;51.512;-0.382;2023-08-07T01:06:56;12.40;99.90
30037;DHT22;36325;51.512;-0.382;2023-08-07T01:09:54;12.40;99.90
30037;DHT22;36325;51.512;-0.382;2023-08-07T01:12:38;12.40;99.90
30037;DHT22;36325;51.512;-0.382;2023-08-07T01:15:22;12.40;99.90
30037;DHT22;36325;51.512;-0.382;2023-08-07T01:18:03;12.40;99.90
30037;DHT22;36325;51.512;-0.382;2023-08-07T01:20:33;12.30;99.90
30037;DHT22;36325;51.512;-0.382;2023-08-07T01:23:00;12.30;99.90
30037;DHT22;36325;51.512;-0.382;2023-08-07T01:28:09;12.20;99.90
30037;DHT22;36325;51.512;-0.382;2023-08-07T01:30:46;12.20;99.90
30037;DHT22;36325;51.512;-0.382;2023-08-07T01:36:44;12.10;99.90
30037;DHT22;36325;51.512;-0.382;2023-08-07T01:39:12;12.10;99.90
30037;DHT22;36325;51.512;-0.382;2023-08-07T01:41:47;12.10;99.90
30037;DHT22;36325;51.512;-0.382;2023-08-07T01:44:25;12.10;99.90
30037;DHT22;36325;51.512;-0.382;2023-08-07T01:47:19;12.10;99.90
30037;DHT22;36325;51.512;-0.382;2023-08-07T01:49:47;12.00;99.90
30037;DHT22;36325;51.512;-0.382;2023-08-07T01:52:20;12.00;99.90
30037;DHT22;36325;51.512;-0.382;2023-08-07T01:57:19;12.00;99.90
30037;DHT22;36325;51.512;-0.382;2023-08-07T01:59:46;12.00;99.90
30037;DHT22;36325;51.512;-0.382;2023-08-07T02:02:17;12.00;99.90
30037;DHT22;36325;51.512;-0.382;2023-08-07T02:04:46;11.90;99.90
30037;DHT22;36325;51.512;-0.382;2023-08-07T02:09:47;11.90;99.90
30037;DHT22;36325;51.512;-0.382;2023-08-07T02:12:15;11.90;99.90
30037;DHT22;36325;51.512;-0.382;2023-08-07T02:14:46;11.90;99.90
30037;DHT22;36325;51.512;-0.382;2023-08-07T02:17:14;11.90;99.90
30037;DHT22;36325;51.512;-0.382;2023-08-07T02:19:42;11.90;99.90
30037;DHT22;36325;51.512;-0.382;2023-08-07T02:22:15;11.90;99.90
30037;DHT22;36325;51.512;-0.382;2023-08-07T02:24:43;11.90;99.90
30037;DHT22;36325;51.512;-0.382;2023-08-07T02:27:40;11.90;99.90
30037;DHT22;36325;51.512;-0.382;2023-08-07T02:30:37;11.90;99.90
30037;DHT22;36325;51.512;-0.382;2023-08-07T02:33:07;11.90;99.90
30037;DHT22;36325;51.512;-0.382;2023-08-07T02:35:36;11.80;99.90
30037;DHT22;36325;51.512;-0.382;2023-08-07T02:38:07;11.80;99.90
30037;DHT22;36325;51.512;-0.382;2023-08-07T02:40:37;11.80;99.90
30037;DHT22;36325;51.512;-0.382;2023-08-07T02:43:08;11.90;99.90
30037;DHT22;36325;51.512;-0.382;2023-08-07T02:45:36;11.80;99.90
30037;DHT22;36325;51.512;-0.382;2023-08-07T02:48:04;11.80;99.90
30037;DHT22;36325;51.512;-0.382;2023-08-07T02:50:32;11.80;99.90
30037;DHT22;36325;51.512;-0.382;2023-08-07T02:53:01;11.80;99.90
30037;DHT22;36325;51.512;-0.382;2023-08-07T02:55:29;11.80;99.90
30037;DHT22;36325;51.512;-0.382;2023-08-07T02:58:00;11.80;99.90
30037;DHT22;36325;51.512;-0.382;2023-08-07T03:00:34;11.70;99.90
30037;DHT22;36325;51.512;-0.382;2023-08-07T03:03:14;11.80;99.90
30037;DHT22;36325;51.512;-0.382;2023-08-07T03:05:50;11.70;99.90
30037;DHT22;36325;51.512;-0.382;2023-08-07T03:08:19;11.70;99.90
30037;DHT22;36325;51.512;-0.382;2023-08-07T03:11:01;11.70;99.90
30037;DHT22;36325;51.512;-0.382;2023-08-07T03:13:32;11.70;99.90
30037;DHT22;36325;51.512;-0.382;2023-08-07T03:16:06;11.60;99.90
30037;DHT22;36325;51.512;-0.382;2023-08-07T03:18:37;11.60;99.90
30037;DHT22;36325;51.512;-0.382;2023-08-07T03:21:05;11.60;99.90
30037;DHT22;36325;51.512;-0.382;2023-08-07T03:23:38;11.50;99.90
30037;DHT22;36325;51.512;-0.382;2023-08-07T03:26:10;11.50;99.90
30037;DHT22;36325;51.512;-0.382;2023-08-07T03:28:49;11.50;99.90
30037;DHT22;36325;51.512;-0.382;2023-08-07T03:31:31;11.50;99.90
30037;DHT22;36325;51.512;-0.382;2023-08-07T03:34:28;11.50;99.90
30037;DHT22;36325;51.512;-0.382;2023-08-07T03:36:58;11.50;99.90
30037;DHT22;36325;51.512;-0.382;2023-08-07T03:39:31;11.40;99.90
30037;DHT22;36325;51.512;-0.382;2023-08-07T03:41:58;11.40;99.90
30037;DHT22;36325;51.512;-0.382;2023-08-07T03:44:28;11.40;99.90
30037;DHT22;36325;51.512;-0.382;2023-08-07T03:47:11;11.40;99.90
30037;DHT22;36325;51.512;-0.382;2023-08-07T03:49:39;11.30;99.90
30037;DHT22;36325;51.512;-0.382;2023-08-07T03:52:07;11.20;99.90
30037;DHT22;36325;51.512;-0.382;2023-08-07T03:54:35;11.30;99.90
30037;DHT22;36325;51.512;-0.382;2023-08-07T03:57:18;11.30;99.90
30037;DHT22;36325;51.512;-0.382;2023-08-07T03:59:49;11.30;99.90
30037;DHT22;36325;51.512;-0.382;2023-08-07T04:02:17;11.20;99.90
30037;DHT22;36325;51.512;-0.382;2023-08-07T04:05:14;11.20;99.90
30037;DHT22;36325;51.512;-0.382;2023-08-07T04:07:43;11.20;99.90
30037;DHT22;36325;51.512;-0.382;2023-08-07T04:10:24;11.20;99.90
30037;DHT22;36325;51.512;-0.382;2023-08-07T04:12:55;11.20;99.90
30037;DHT22;36325;51.512;-0.382;2023-08-07T04:15:24;11.20;99.90
30037;DHT22;36325;51.512;-0.382;2023-08-07T04:17:55;13.10;99.90
30037;DHT22;36325;51.512;-0.382;2023-08-07T04:22:55;11.20;99.90
30037;DHT22;36325;51.512;-0.382;2023-08-07T04:25:37;11.20;99.90
30037;DHT22;36325;51.512;-0.382;2023-08-07T04:28:06;11.20;99.90
30037;DHT22;36325;51.512;-0.382;2023-08-07T04:34:00;11.10;99.90
30037;DHT22;36325;51.512;-0.382;2023-08-07T04:36:32;11.10;99.90
30037;DHT22;36325;51.512;-0.382;2023-08-07T04:39:22;11.10;99.90
30037;DHT22;36325;51.512;-0.382;2023-08-07T04:41:57;11.10;99.90
30037;DHT22;36325;51.512;-0.382;2023-08-07T04:44:36;11.10;99.90
30037;DHT22;36325;51.512;-0.382;2023-08-07T04:47:14;11.10;99.90
30037;DHT22;36325;51.512;-0.382;2023-08-07T04:50:00;11.10;99.90
30037;DHT22;36325;51.512;-0.382;2023-08-07T04:52:46;11.10;99.90
30037;DHT22;36325;51.512;-0.382;2023-08-07T04:55:40;11.20;99.90
30037;DHT22;36325;51.512;-0.382;2023-08-07T04:58:12;11.20;99.90
30037;DHT22;36325;51.512;-0.382;2023-08-07T05:00:40;11.10;99.90
30037;DHT22;36325;51.512;-0.382;2023-08-07T05:03:12;11.20;99.90
30037;DHT22;36325;51.512;-0.382;2023-08-07T05:05:46;11.30;99.90
30037;DHT22;36325;51.512;-0.382;2023-08-07T05:08:17;11.30;99.90
30037;DHT22;36325;51.512;-0.382;2023-08-07T05:10:46;11.30;99.90
30037;DHT22;36325;51.512;-0.382;2023-08-07T05:16:38;11.40;99.90
30037;DHT22;36325;51.512;-0.382;2023-08-07T05:19:06;11.40;99.90
30037;DHT22;36325;51.512;-0.382;2023-08-07T05:21:38;11.50;99.90
30037;DHT22;36325;51.512;-0.382;2023-08-07T05:24:07;11.50;99.90
30037;DHT22;36325;51.512;-0.382;2023-08-07T05:26:34;11.50;99.90
30037;DHT22;36325;51.512;-0.382;2023-08-07T05:29:03;11.50;99.90
30037;DHT22;36325;51.512;-0.382;2023-08-07T05:34:17;11.60;99.90
30037;DHT22;36325;51.512;-0.382;2023-08-07T05:36:49;11.70;99.90
30037;DHT22;36325;51.512;-0.382;2023-08-07T05:39:18;11.80;99.90
30037;DHT22;36325;51.512;-0.382;2023-08-07T05:41:47;11.70;99.90
30037;DHT22;36325;51.512;-0.382;2023-08-07T05:44:15;11.80;99.90
30037;DHT22;36325;51.512;-0.382;2023-08-07T05:46:50;11.90;99.90
30037;DHT22;36325;51.512;-0.382;2023-08-07T05:49:47;11.90;99.90
30037;DHT22;36325;51.512;-0.382;2023-08-07T05:52:17;11.90;99.90
30037;DHT22;36325;51.512;-0.382;2023-08-07T05:54:46;12.00;99.90
30037;DHT22;36325;51.512;-0.382;2023-08-07T05:57:15;12.10;99.90
30037;DHT22;36325;51.512;-0.382;2023-08-07T05:59:48;12.10;99.90
30037;DHT22;36325;51.512;-0.382;2023-08-07T06:02:16;12.10;99.90
30037;DHT22;36325;51.512;-0.382;2023-08-07T06:04:45;12.20;99.90
30037;DHT22;36325;51.512;-0.382;2023-08-07T06:07:27;12.30;99.90
30037;DHT22;36325;51.512;-0.382;2023-08-07T06:09:56;12.40;99.90
30037;DHT22;36325;51.512;-0.382;2023-08-07T06:12:25;12.30;99.90
30037;DHT22;36325;51.512;-0.382;2023-08-07T06:15:06;12.50;99.90
30037;DHT22;36325;51.512;-0.382;2023-08-07T06:17:36;12.60;99.90
30037;DHT22;36325;51.512;-0.382;2023-08-07T06:23:20;12.70;99.90
30037;DHT22;36325;51.512;-0.382;2023-08-07T06:26:03;12.70;99.90
30037;DHT22;36325;51.512;-0.382;2023-08-07T06:28:36;12.80;99.90
30037;DHT22;36325;51.512;-0.382;2023-08-07T06:31:07;12.80;99.90
30037;DHT22;36325;51.512;-0.382;2023-08-07T06:33:36;13.00;99.90
30037;DHT22;36325;51.512;-0.382;2023-08-07T06:36:06;12.90;99.90
30037;DHT22;36325;51.512;-0.382;2023-08-07T06:38:36;13.00;99.90
30037;DHT22;36325;51.512;-0.382;2023-08-07T06:46:02;13.20;99.90
30037;DHT22;36325;51.512;-0.382;2023-08-07T06:48:31;13.30;99.90
30037;DHT22;36325;51.512;-0.382;2023-08-07T06:50:59;13.40;99.90
30037;DHT22;36325;51.512;-0.382;2023-08-07T06:53:27;13.50;99.90
30037;DHT22;36325;51.512;-0.382;2023-08-07T06:55:57;13.40;99.90
30037;DHT22;36325;51.512;-0.382;2023-08-07T06:58:26;13.50;99.90
30037;DHT22;36325;51.512;-0.382;2023-08-07T07:03:25;13.70;99.90
30037;DHT22;36325;51.512;-0.382;2023-08-07T07:05:53;13.60;99.90
30037;DHT22;36325;51.512;-0.382;2023-08-07T07:08:25;13.60;99.90
30037;DHT22;36325;51.512;-0.382;2023-08-07T07:11:01;13.80;99.90
30037;DHT22;36325;51.512;-0.382;2023-08-07T07:13:30;13.90;99.90
30037;DHT22;36325;51.512;-0.382;2023-08-07T07:15:59;13.90;99.90
30037;DHT22;36325;51.512;-0.382;2023-08-07T07:18:36;14.00;99.90
30037;DHT22;36325;51.512;-0.382;2023-08-07T07:21:18;14.10;99.90
30037;DHT22;36325;51.512;-0.382;2023-08-07T07:26:19;14.30;99.90
30037;DHT22;36325;51.512;-0.382;2023-08-07T07:28:50;14.50;99.90
30037;DHT22;36325;51.512;-0.382;2023-08-07T07:31:33;14.40;99.90
30037;DHT22;36325;51.512;-0.382;2023-08-07T07:34:03;14.50;99.90
30037;DHT22;36325;51.512;-0.382;2023-08-07T07:36:54;14.70;99.90
30037;DHT22;36325;51.512;-0.382;2023-08-07T07:39:30;14.80;99.90
30037;DHT22;36325;51.512;-0.382;2023-08-07T07:42:03;14.90;99.90
30037;DHT22;36325;51.512;-0.382;2023-08-07T07:44:35;15.00;99.90
30037;DHT22;36325;51.512;-0.382;2023-08-07T07:47:03;15.10;99.90
30037;DHT22;36325;51.512;-0.382;2023-08-07T07:49:33;15.30;99.90
30037;DHT22;36325;51.512;-0.382;2023-08-07T07:52:01;15.60;99.90
30037;DHT22;36325;51.512;-0.382;2023-08-07T07:54:42;15.60;99.90
30037;DHT22;36325;51.512;-0.382;2023-08-07T07:57:13;15.90;99.90
30037;DHT22;36325;51.512;-0.382;2023-08-07T07:59:41;16.00;99.90
30037;DHT22;36325;51.512;-0.382;2023-08-07T08:02:09;16.20;99.90
30037;DHT22;36325;51.512;-0.382;2023-08-07T08:04:39;16.50;99.90
30037;DHT22;36325;51.512;-0.382;2023-08-07T08:07:13;16.70;99.90
30037;DHT22;36325;51.512;-0.382;2023-08-07T08:09:43;17.00;99.90
30037;DHT22;36325;51.512;-0.382;2023-08-07T08:12:21;17.30;99.90
30037;DHT22;36325;51.512;-0.382;2023-08-07T08:14:49;17.70;99.90
30037;DHT22;36325;51.512;-0.382;2023-08-07T08:17:56;18.40;99.90
30037;DHT22;36325;51.512;-0.382;2023-08-07T08:20:24;18.40;99.90
30037;DHT22;36325;51.512;-0.382;2023-08-07T08:22:54;18.70;99.90
30037;DHT22;36325;51.512;-0.382;2023-08-07T08:25:22;19.20;99.90
30037;DHT22;36325;51.512;-0.382;2023-08-07T08:27:52;19.20;99.90
30037;DHT22;36325;51.512;-0.382;2023-08-07T08:30:24;19.40;99.90
30037;DHT22;36325;51.512;-0.382;2023-08-07T08:32:52;19.40;99.90
30037;DHT22;36325;51.512;-0.382;2023-08-07T08:35:33;19.40;99.90
30037;DHT22;36325;51.512;-0.382;2023-08-07T08:38:10;19.60;99.90
30037;DHT22;36325;51.512;-0.382;2023-08-07T08:40:42;19.80;99.90
30037;DHT22;36325;51.512;-0.382;2023-08-07T08:43:35;19.70;99.90
30037;DHT22;36325;51.512;-0.382;2023-08-07T08:46:20;20.10;99.90
30037;DHT22;36325;51.512;-0.382;2023-08-07T08:48:56;20.40;99.90
30037;DHT22;36325;51.512;-0.382;2023-08-07T08:51:25;20.60;99.90
30037;DHT22;36325;51.512;-0.382;2023-08-07T08:54:06;21.40;99.90
30037;DHT22;36325;51.512;-0.382;2023-08-07T08:56:36;20.80;99.90
30037;DHT22;36325;51.512;-0.382;2023-08-07T08:59:21;20.40;99.90
30037;DHT22;36325;51.512;-0.382;2023-08-07T09:01:57;20.40;99.90
30037;DHT22;36325;51.512;-0.382;2023-08-07T09:04:39;20.70;99.90
30037;DHT22;36325;51.512;-0.382;2023-08-07T09:07:14;21.00;99.90
30037;DHT22;36325;51.512;-0.382;2023-08-07T09:09:49;21.40;99.90
30037;DHT22;36325;51.512;-0.382;2023-08-07T09:12:25;21.40;99.90
30037;DHT22;36325;51.512;-0.382;2023-08-07T09:15:02;21.50;99.90
30037;DHT22;36325;51.512;-0.382;2023-08-07T09:17:38;21.60;99.90
30037;DHT22;36325;51.512;-0.382;2023-08-07T09:20:37;22.10;99.90
30037;DHT22;36325;51.512;-0.382;2023-08-07T09:23:11;22.20;99.90
30037;DHT22;36325;51.512;-0.382;2023-08-07T09:29:02;22.60;99.90
30037;DHT22;36325;51.512;-0.382;2023-08-07T09:31:43;22.60;99.90
30037;DHT22;36325;51.512;-0.382;2023-08-07T09:34:20;23.20;99.90
30037;DHT22;36325;51.512;-0.382;2023-08-07T09:37:04;23.60;99.90
30037;DHT22;36325;51.512;-0.382;2023-08-07T09:39:51;24.20;99.90
30037;DHT22;36325;51.512;-0.382;2023-08-07T09:42:18;24.40;99.90
30037;DHT22;36325;51.512;-0.382;2023-08-07T09:44:46;24.60;99.90
30037;DHT22;36325;51.512;-0.382;2023-08-07T09:47:17;24.80;99.90
30037;DHT22;36325;51.512;-0.382;2023-08-07T09:49:47;24.20;99.90
30037;DHT22;36325;51.512;-0.382;2023-08-07T09:52:15;24.10;99.90
30037;DHT22;36325;51.512;-0.382;2023-08-07T09:54:57;24.10;99.90
30037;DHT22;36325;51.512;-0.382;2023-08-07T09:57:28;23.60;99.90
30037;DHT22;36325;51.512;-0.382;2023-08-07T10:00:08;23.80;99.90
30037;DHT22;36325;51.512;-0.382;2023-08-07T10:02:55;23.70;99.90
30037;DHT22;36325;51.512;-0.382;2023-08-07T10:05:22;23.00;99.90
30037;DHT22;36325;51.512;-0.382;2023-08-07T10:08:04;22.70;99.90
30037;DHT22;36325;51.512;-0.382;2023-08-07T10:10:51;23.10;99.90
30037;DHT22;36325;51.512;-0.382;2023-08-07T10:13:19;23.30;99.90
30037;DHT22;36325;51.512;-0.382;2023-08-07T10:15:52;23.30;99.90
30037;DHT22;36325;51.512;-0.382;2023-08-07T10:18:36;23.40;99.90
30037;DHT22;36325;51.512;-0.382;2023-08-07T10:21:06;23.60;99.90
30037;DHT22;36325;51.512;-0.382;2023-08-07T10:23:36;23.60;99.90
30037;DHT22;36325;51.512;-0.382;2023-08-07T10:26:08;23.50;99.90
30037;DHT22;36325;51.512;-0.382;2023-08-07T10:28:40;22.90;99.90
30037;DHT22;36325;51.512;-0.382;2023-08-07T10:31:11;22.60;99.90
30037;DHT22;36325;51.512;-0.382;2023-08-07T10:33:55;22.50;99.90
30037;DHT22;36325;51.512;-0.382;2023-08-07T10:36:37;22.70;99.90
30037;DHT22;36325;51.512;-0.382;2023-08-07T10:39:15;23.00;99.90
30037;DHT22;36325;51.512;-0.382;2023-08-07T10:41:55;23.30;99.90
30037;DHT22;36325;51.512;-0.382;2023-08-07T10:44:30;23.60;99.90
30037;DHT22;36325;51.512;-0.382;2023-08-07T10:49:39;23.70;99.90
30037;DHT22;36325;51.512;-0.382;2023-08-07T10:52:15;23.90;99.90
30037;DHT22;36325;51.512;-0.382;2023-08-07T10:54:48;24.00;99.90
30037;DHT22;36325;51.512;-0.382;2023-08-07T10:57:18;24.00;99.90
30037;DHT22;36325;51.512;-0.382;2023-08-07T11:02:31;24.20;99.90
30037;DHT22;36325;51.512;-0.382;2023-08-07T11:05:05;24.20;99.90
30037;DHT22;36325;51.512;-0.382;2023-08-07T11:07:40;24.80;99.90
30037;DHT22;36325;51.512;-0.382;2023-08-07T11:10:14;24.80;99.90
30037;DHT22;36325;51.512;-0.382;2023-08-07T11:12:48;24.20;99.90
30037;DHT22;36325;51.512;-0.382;2023-08-07T11:15:22;25.10;99.90
30037;DHT22;36325;51.512;-0.382;2023-08-07T11:18:03;26.40;99.90
30037;DHT22;36325;51.512;-0.382;2023-08-07T11:20:44;27.10;99.90
30037;DHT22;36325;51.512;-0.382;2023-08-07T11:23:16;27.30;99.90
30037;DHT22;36325;51.512;-0.382;2023-08-07T11:25:58;27.30;99.90
30037;DHT22;36325;51.512;-0.382;2023-08-07T11:28:28;27.00;99.90
30037;DHT22;36325;51.512;-0.382;2023-08-07T11:31:00;25.90;99.90
30037;DHT22;36325;51.512;-0.382;2023-08-07T11:33:28;25.90;99.90
30037;DHT22;36325;51.512;-0.382;2023-08-07T11:35:59;27.10;99.90
30037;DHT22;36325;51.512;-0.382;2023-08-07T11:39:09;27.90;99.90
30037;DHT22;36325;51.512;-0.382;2023-08-07T11:41:40;27.50;99.90
30037;DHT22;36325;51.512;-0.382;2023-08-07T11:44:33;27.50;99.90
30037;DHT22;36325;51.512;-0.382;2023-08-07T11:47:04;23.20;99.90
30037;DHT22;36325;51.512;-0.382;2023-08-07T11:49:32;26.20;99.90
30037;DHT22;36325;51.512;-0.382;2023-08-07T11:52:02;26.00;99.90
30037;DHT22;36325;51.512;-0.382;2023-08-07T11:54:38;27.10;99.90
30037;DHT22;36325;51.512;-0.382;2023-08-07T11:57:17;23.70;99.90
30037;DHT22;36325;51.512;-0.382;2023-08-07T11:59:51;28.40;99.90
30037;DHT22;36325;51.512;-0.382;2023-08-07T12:02:26;28.80;99.90
30037;DHT22;36325;51.512;-0.382;2023-08-07T12:05:16;27.90;99.90
30037;DHT22;36325;51.512;-0.382;2023-08-07T12:07:48;27.80;99.90
30037;DHT22;36325;51.512;-0.382;2023-08-07T12:14:13;27.50;99.90
30037;DHT22;36325;51.512;-0.382;2023-08-07T12:16:45;27.20;99.90
30037;DHT22;36325;51.512;-0.382;2023-08-07T12:19:41;26.70;99.90
30037;DHT22;36325;51.512;-0.382;2023-08-07T12:22:37;27.30;99.90
30037;DHT22;36325;51.512;-0.382;2023-08-07T12:25:38;27.40;99.90
30037;DHT22;36325;51.512;-0.382;2023-08-07T12:28:07;27.80;99.90
30037;DHT22;36325;51.512;-0.382;2023-08-07T12:33:37;28.40;99.90
30037;DHT22;36325;51.512;-0.382;2023-08-07T12:36:07;28.50;99.90
30037;DHT22;36325;51.512;-0.382;2023-08-07T12:38:52;29.10;99.90
30037;DHT22;36325;51.512;-0.382;2023-08-07T12:41:21;29.50;99.90
30037;DHT22;36325;51.512;-0.382;2023-08-07T12:43:52;30.30;99.90
30037;DHT22;36325;51.512;-0.382;2023-08-07T12:46:35;30.40;99.90
30037;DHT22;36325;51.512;-0.382;2023-08-07T12:49:11;31.10;99.90
30037;DHT22;36325;51.512;-0.382;2023-08-07T12:51:46;32.10;99.90
30037;DHT22;36325;51.512;-0.382;2023-08-07T12:54:14;32.30;99.90
30037;DHT22;36325;51.512;-0.382;2023-08-07T12:56:59;31.10;99.90
30037;DHT22;36325;51.512;-0.382;2023-08-07T13:02:00;28.10;99.90
30037;DHT22;36325;51.512;-0.382;2023-08-07T13:04:30;27.00;99.90
30037;DHT22;36325;51.512;-0.382;2023-08-07T13:07:21;26.30;99.90
30037;DHT22;36325;51.512;-0.382;2023-08-07T13:09:55;25.80;99.90
30037;DHT22;36325;51.512;-0.382;2023-08-07T13:12:29;27.60;99.90
30037;DHT22;36325;51.512;-0.382;2023-08-07T13:15:12;27.60;99.90
30037;DHT22;36325;51.512;-0.382;2023-08-07T13:17:43;28.30;99.90
30037;DHT22;36325;51.512;-0.382;2023-08-07T13:20:21;28.70;99.90
30037;DHT22;36325;51.512;-0.382;2023-08-07T13:25:44;30.80;99.90
30037;DHT22;36325;51.512;-0.382;2023-08-07T13:28:26;32.00;99.50
30037;DHT22;36325;51.512;-0.382;2023-08-07T13:31:09;32.00;99.90
30037;DHT22;36325;51.512;-0.382;2023-08-07T13:33:55;32.80;98.80
30037;DHT22;36325;51.512;-0.382;2023-08-07T13:58:23;29.20;98.60
30037;DHT22;36325;51.512;-0.382;2023-08-07T14:00:50;29.50;99.30
30037;DHT22;36325;51.512;-0.382;2023-08-07T14:03:22;30.00;99.10
30037;DHT22;36325;51.512;-0.382;2023-08-07T14:06:04;30.40;98.90
30037;DHT22;36325;51.512;-0.382;2023-08-07T14:08:38;31.20;98.30
30037;DHT22;36325;51.512;-0.382;2023-08-07T14:11:20;31.70;98.10
30037;DHT22;36325;51.512;-0.382;2023-08-07T14:16:33;31.30;97.30
30037;DHT22;36325;51.512;-0.382;2023-08-07T14:19:07;31.20;97.20
30037;DHT22;36325;51.512;-0.382;2023-08-07T14:21:41;31.60;96.50
30037;DHT22;36325;51.512;-0.382;2023-08-07T14:24:09;31.80;95.80
30037;DHT22;36325;51.512;-0.382;2023-08-07T14:26:39;31.10;96.40
30037;DHT22;36325;51.512;-0.382;2023-08-07T14:29:13;30.20;96.60
30037;DHT22;36325;51.512;-0.382;2023-08-07T14:31:42;29.70;97.10
30037;DHT22;36325;51.512;-0.382;2023-08-07T14:34:15;29.60;97.20
30037;DHT22;36325;51.512;-0.382;2023-08-07T14:36:47;30.20;96.90
30037;DHT22;36325;51.512;-0.382;2023-08-07T14:39:20;30.20;97.20
30037;DHT22;36325;51.512;-0.382;2023-08-07T14:42:02;29.60;97.50
30037;DHT22;36325;51.512;-0.382;2023-08-07T14:44:31;28.50;98.10
30037;DHT22;36325;51.512;-0.382;2023-08-07T14:46:58;27.40;98.90
30037;DHT22;36325;51.512;-0.382;2023-08-07T14:49:37;27.40;99.50
30037;DHT22;36325;51.512;-0.382;2023-08-07T14:52:20;27.80;99.90
30037;DHT22;36325;51.512;-0.382;2023-08-07T14:54:50;28.10;99.50
30037;DHT22;36325;51.512;-0.382;2023-08-07T14:57:20;27.90;98.90
30037;DHT22;36325;51.512;-0.382;2023-08-07T15:02:16;29.50;97.90
30037;DHT22;36325;51.512;-0.382;2023-08-07T15:04:44;29.20;98.40
30037;DHT22;36325;51.512;-0.382;2023-08-07T15:07:12;28.90;98.80
30037;DHT22;36325;51.512;-0.382;2023-08-07T15:09:53;28.40;99.20
30037;DHT22;36325;51.512;-0.382;2023-08-07T15:12:30;28.40;99.50
30037;DHT22;36325;51.512;-0.382;2023-08-07T15:17:41;28.40;99.70
30037;DHT22;36325;51.512;-0.382;2023-08-07T15:20:13;28.10;99.60
30037;DHT22;36325;51.512;-0.382;2023-08-07T15:22:42;27.80;99.70
30037;DHT22;36325;51.512;-0.382;2023-08-07T15:25:14;27.90;99.90
30037;DHT22;36325;51.512;-0.382;2023-08-07T15:27:43;27.70;99.50
30037;DHT22;36325;51.512;-0.382;2023-08-07T15:30:28;28.30;99.90
30037;DHT22;36325;51.512;-0.382;2023-08-07T15:32:59;28.60;99.90
30037;DHT22;36325;51.512;-0.382;2023-08-07T15:35:29;27.90;99.90
30037;DHT22;36325;51.512;-0.382;2023-08-07T15:37:59;27.80;99.90
30037;DHT22;36325;51.512;-0.382;2023-08-07T15:40:29;28.00;99.90
30037;DHT22;36325;51.512;-0.382;2023-08-07T15:42:57;28.00;99.90
30037;DHT22;36325;51.512;-0.382;2023-08-07T15:45:56;28.10;99.90
30037;DHT22;36325;51.512;-0.382;2023-08-07T15:48:25;28.10;99.90
30037;DHT22;36325;51.512;-0.382;2023-08-07T15:50:58;28.20;99.90
30037;DHT22;36325;51.512;-0.382;2023-08-07T15:53:27;28.20;99.90
30037;DHT22;36325;51.512;-0.382;2023-08-07T15:55:55;28.00;99.90
30037;DHT22;36325;51.512;-0.382;2023-08-07T15:58:24;27.80;99.90
30037;DHT22;36325;51.512;-0.382;2023-08-07T16:00:51;27.30;99.90
30037;DHT22;36325;51.512;-0.382;2023-08-07T16:03:20;27.00;99.90
30037;DHT22;36325;51.512;-0.382;2023-08-07T16:06:03;26.40;99.90
30037;DHT22;36325;51.512;-0.382;2023-08-07T16:08:32;25.80;99.90
30037;DHT22;36325;51.512;-0.382;2023-08-07T16:11:00;25.70;99.90
30037;DHT22;36325;51.512;-0.382;2023-08-07T16:13:32;25.70;99.90
30037;DHT22;36325;51.512;-0.382;2023-08-07T16:16:02;25.90;99.90
30037;DHT22;36325;51.512;-0.382;2023-08-07T16:18:30;26.00;99.90
30037;DHT22;36325;51.512;-0.382;2023-08-07T16:20:57;26.10;99.90
30037;DHT22;36325;51.512;-0.382;2023-08-07T16:23:25;26.50;99.90
30037;DHT22;36325;51.512;-0.382;2023-08-07T16:25:52;27.00;99.90
30037;DHT22;36325;51.512;-0.382;2023-08-07T16:28:23;27.00;99.90
30037;DHT22;36325;51.512;-0.382;2023-08-07T16:30:50;27.20;99.90
30037;DHT22;36325;51.512;-0.382;2023-08-07T16:33:22;27.40;99.90
30037;DHT22;36325;51.512;-0.382;2023-08-07T16:35:49;27.10;99.90
30037;DHT22;36325;51.512;-0.382;2023-08-07T16:38:18;26.60;99.90
30037;DHT22;36325;51.512;-0.382;2023-08-07T16:40:46;26.20;99.90
30037;DHT22;36325;51.512;-0.382;2023-08-07T16:43:27;26.00;99.90
30037;DHT22;36325;51.512;-0.382;2023-08-07T16:45:56;26.00;99.90
30037;DHT22;36325;51.512;-0.382;2023-08-07T16:48:25;25.90;99.90
30037;DHT22;36325;51.512;-0.382;2023-08-07T16:50:53;25.70;99.90
30037;DHT22;36325;51.512;-0.382;2023-08-07T16:53:39;25.50;99.90
30037;DHT22;36325;51.512;-0.382;2023-08-07T16:56:08;25.30;99.90
30037;DHT22;36325;51.512;-0.382;2023-08-07T16:58:37;25.20;99.90
30037;DHT22;36325;51.512;-0.382;2023-08-07T17:01:07;25.10;99.90
30037;DHT22;36325;51.512;-0.382;2023-08-07T17:03:34;25.10;99.90
30037;DHT22;36325;51.512;-0.382;2023-08-07T17:06:03;25.20;99.90
30037;DHT22;36325;51.512;-0.382;2023-08-07T17:08:31;25.00;99.90
30037;DHT22;36325;51.512;-0.382;2023-08-07T17:10:59;25.00;99.90
30037;DHT22;36325;51.512;-0.382;2023-08-07T17:13:30;24.80;99.90
30037;DHT22;36325;51.512;-0.382;2023-08-07T17:15:58;24.90;99.90
30037;DHT22;36325;51.512;-0.382;2023-08-07T17:18:26;25.30;99.90
30037;DHT22;36325;51.512;-0.382;2023-08-07T17:20:57;25.30;99.90
30037;DHT22;36325;51.512;-0.382;2023-08-07T17:23:26;25.20;99.90
30037;DHT22;36325;51.512;-0.382;2023-08-07T17:26:07;25.40;99.90
30037;DHT22;36325;51.512;-0.382;2023-08-07T17:28:37;25.40;99.90
30037;DHT22;36325;51.512;-0.382;2023-08-07T17:31:06;25.30;99.90
30037;DHT22;36325;51.512;-0.382;2023-08-07T17:33:44;25.00;99.90
30037;DHT22;36325;51.512;-0.382;2023-08-07T17:36:13;24.70;99.90
30037;DHT22;36325;51.512;-0.382;2023-08-07T17:38:40;24.40;99.90